Time;durP1;ratioP1;P1;durP2;ratioP2;P2;SDS_P1;SDS_P2;PMS_P1;PMS_P2;Temp;Humidity;BMP_temperature;BMP_pressure;BME280_temperature;BME280_humidity;BME280_pressure;Samples;Min_cycle;Max_cycle;Signal;HPM_P1;HPM_P2
2022/03/09 00:01:01;;;;;;;10.45;7.40;;;1.90;97.80;;;;;;476794;249;27585;-73
2022/03/09 00:03:02;;;;;;;10.43;7.50;;;1.80;98.00;;;;;;476683;249;27574;-72
2022/03/09 00:05:04;;;;;;;9.82;7.85;;;1.90;97.70;;;;;;476796;249;27540;-73
2022/03/09 00:07:05;;;;;;;10.77;6.95;;;1.90;97.70;;;;;;476875;249;27563;-72
2022/03/09 00:09:06;;;;;;;16.40;10.05;;;2.00;97.60;;;;;;476874;249;27582;-73
2022/03/09 00:11:08;;;;;;;12.10;8.00;;;1.90;97.70;;;;;;476965;249;27954;-73
2022/03/09 00:13:09;;;;;;;11.57;8.15;;;1.80;98.00;;;;;;476777;249;29118;-73
2022/03/09 00:15:10;;;;;;;11.32;8.70;;;1.80;98.30;;;;;;476829;249;27566;-72
2022/03/09 00:17:11;;;;;;;14.45;8.00;;;1.80;98.10;;;;;;476865;249;27687;-73
2022/03/09 00:19:13;;;;;;;10.23;7.62;;;1.90;98.10;;;;;;476826;249;27653;-73
2022/03/09 00:21:14;;;;;;;9.68;6.87;;;2.00;98.00;;;;;;476800;247;27522;-73
2022/03/09 00:23:15;;;;;;;10.73;6.90;;;1.90;98.30;;;;;;476894;249;27560;-73
2022/03/09 00:25:16;;;;;;;11.55;7.45;;;1.90;98.20;;;;;;476906;249;27573;-73
2022/03/09 00:27:18;;;;;;;7.72;5.97;;;1.90;98.20;;;;;;476914;249;27616;-73
2022/03/09 00:29:19;;;;;;;8.68;6.22;;;1.70;98.70;;;;;;476888;249;27548;-73
2022/03/09 00:31:20;;;;;;;8.55;6.53;;;1.60;98.90;;;;;;476814;249;27507;-73
2022/03/09 00:33:21;;;;;;;9.30;5.95;;;1.70;98.70;;;;;;476804;249;28110;-73
2022/03/09 00:35:23;;;;;;;8.10;5.60;;;1.70;98.80;;;;;;476824;249;28684;-72
2022/03/09 00:37:24;;;;;;;7.25;5.90;;;1.60;99.00;;;;;;476857;248;28077;-72
2022/03/09 00:39:27;;;;;;;9.88;5.62;;;1.60;99.00;;;;;;476862;249;28043;-73
2022/03/09 00:41:27;;;;;;;6.12;5.03;;;1.60;99.10;;;;;;476824;249;27634;-73
2022/03/09 00:43:29;;;;;;;7.72;5.37;;;1.50;99.00;;;;;;476855;249;27508;-73
2022/03/09 00:45:30;;;;;;;7.47;5.72;;;1.40;99.00;;;;;;476876;249;28009;-73
2022/03/09 00:47:31;;;;;;;9.43;5.43;;;1.30;99.40;;;;;;476829;249;28061;-74
2022/03/09 00:49:32;;;;;;;8.85;6.70;;;1.50;99.20;;;;;;476861;249;28087;-73
2022/03/09 00:51:34;;;;;;;6.00;5.40;;;1.60;99.10;;;;;;476878;249;28032;-73
2022/03/09 00:53:35;;;;;;;8.20;5.40;;;1.60;98.80;;;;;;476856;248;27551;-70
2022/03/09 00:55:36;;;;;;;5.97;5.03;;;1.50;99.50;;;;;;476823;249;27532;-73
2022/03/09 00:57:37;;;;;;;8.95;5.65;;;1.50;99.30;;;;;;476854;249;27627;-72
2022/03/09 00:59:40;;;;;;;8.80;5.85;;;1.60;99.30;;;;;;476819;249;27523;-72
2022/03/09 01:01:41;;;;;;;6.87;5.55;;;1.50;99.30;;;;;;476811;249;27515;-72
2022/03/09 01:03:42;;;;;;;7.25;4.95;;;1.40;99.90;;;;;;476809;249;27631;-73
2022/03/09 01:05:44;;;;;;;5.05;4.50;;;1.30;99.90;;;;;;476830;249;28155;-76
2022/03/09 01:07:45;;;;;;;6.65;5.40;;;1.10;99.90;;;;;;476867;249;28033;-73
2022/03/09 01:09:46;;;;;;;5.00;4.20;;;1.20;99.90;;;;;;476867;249;28034;-73
2022/03/09 01:11:47;;;;;;;5.53;4.97;;;1.10;99.90;;;;;;476837;249;28015;-71
2022/03/09 01:13:49;;;;;;;6.30;4.95;;;1.00;99.90;;;;;;476787;249;27546;-73
2022/03/09 01:15:50;;;;;;;6.53;4.97;;;0.90;99.90;;;;;;476842;249;27577;-74
2022/03/09 01:17:51;;;;;;;4.55;4.15;;;0.90;99.90;;;;;;476830;249;27497;-73
2022/03/09 01:19:52;;;;;;;5.45;4.43;;;0.80;99.90;;;;;;476864;249;27550;-70
2022/03/09 01:21:54;;;;;;;5.10;4.22;;;0.80;99.90;;;;;;476810;249;27569;-71
2022/03/09 01:23:55;;;;;;;4.55;3.75;;;0.80;99.90;;;;;;476834;249;27567;-71
2022/03/09 01:25:56;;;;;;;8.45;4.80;;;0.80;99.90;;;;;;476856;249;27565;-71
2022/03/09 01:27:57;;;;;;;5.45;4.45;;;0.90;99.90;;;;;;476805;249;27524;-71
2022/03/09 01:29:59;;;;;;;5.20;4.50;;;1.00;99.90;;;;;;476792;249;27547;-71
2022/03/09 01:32:00;;;;;;;6.37;4.47;;;0.90;99.90;;;;;;476810;249;27514;-71
2022/03/09 01:34:01;;;;;;;5.68;5.12;;;0.80;99.90;;;;;;476832;249;28008;-71
2022/03/09 01:36:02;;;;;;;5.00;4.20;;;0.80;99.90;;;;;;476792;249;27565;-73
2022/03/09 01:38:04;;;;;;;5.57;4.47;;;0.70;99.90;;;;;;476771;249;27603;-71
2022/03/09 01:40:05;;;;;;;4.60;4.07;;;0.70;99.90;;;;;;476774;249;28029;-71
2022/03/09 01:42:06;;;;;;;4.32;3.92;;;0.70;99.90;;;;;;476785;249;27672;-71
2022/03/09 01:44:08;;;;;;;4.15;3.75;;;0.60;99.90;;;;;;476799;249;27515;-73
2022/03/09 01:46:09;;;;;;;4.93;4.45;;;0.70;99.90;;;;;;476814;249;27661;-74
2022/03/09 01:48:10;;;;;;;4.45;4.05;;;0.60;99.90;;;;;;476830;249;27516;-71
2022/03/09 01:50:11;;;;;;;5.12;4.10;;;0.70;99.90;;;;;;476813;249;27613;-71
2022/03/09 01:52:13;;;;;;;4.78;4.07;;;0.70;99.90;;;;;;476914;249;27588;-71
2022/03/09 01:54:14;;;;;;;5.53;4.32;;;0.60;99.90;;;;;;476859;249;27503;-71
2022/03/09 01:56:15;;;;;;;4.68;4.28;;;0.50;99.90;;;;;;476832;249;27566;-71
2022/03/09 01:58:16;;;;;;;5.10;4.40;;;0.40;99.90;;;;;;476866;249;27987;-71
2022/03/09 02:00:18;;;;;;;4.82;4.43;;;0.50;99.90;;;;;;476841;249;28018;-71
2022/03/09 02:02:19;;;;;;;5.43;4.37;;;0.50;99.90;;;;;;476877;249;28667;-71
2022/03/09 02:04:20;;;;;;;4.93;4.53;;;0.50;99.90;;;;;;476883;249;27970;-70
2022/03/09 02:06:21;;;;;;;5.40;4.68;;;0.20;99.90;;;;;;476932;248;27658;-71
2022/03/09 02:10:42;;;;;;;5.05;4.40;;;-0.30;99.90;;;;;;476877;249;27531;-71
2022/03/09 02:12:43;;;;;;;5.68;4.20;;;-0.40;99.90;;;;;;476898;249;27678;-72
2022/03/09 02:14:45;;;;;;;5.03;4.10;;;-0.40;99.90;;;;;;476950;249;27532;-71
2022/03/09 02:16:46;;;;;;;5.25;4.50;;;-0.40;99.90;;;;;;476894;249;27541;-71
2022/03/09 02:18:47;;;;;;;4.62;4.12;;;-0.40;99.90;;;;;;476881;249;27564;-70
2022/03/09 02:20:49;;;;;;;5.50;4.40;;;-0.50;99.90;;;;;;476904;249;27971;-71
2022/03/09 02:22:53;;;;;;;5.25;4.75;;;-0.60;99.90;;;;;;476916;249;28029;-71
2022/03/09 02:24:52;;;;;;;4.05;3.75;;;-0.60;99.90;;;;;;476772;249;27553;-71
2022/03/09 02:26:53;;;;;;;4.85;4.40;;;-0.80;99.90;;;;;;476856;249;27512;-71
2022/03/09 02:28:55;;;;;;;5.40;4.90;;;-0.80;99.90;;;;;;476857;249;27986;-71
2022/03/09 02:30:56;;;;;;;4.47;4.07;;;-0.80;99.90;;;;;;476846;249;29219;-72
2022/03/09 02:32:57;;;;;;;4.10;3.70;;;-0.80;99.90;;;;;;476857;249;27538;-71
2022/03/09 02:34:58;;;;;;;4.95;4.45;;;-0.90;99.90;;;;;;476810;249;27548;-71
2022/03/09 02:37:00;;;;;;;4.85;4.45;;;-0.90;99.90;;;;;;476850;249;28766;-71
2022/03/09 02:39:01;;;;;;;4.28;3.87;;;-1.00;99.90;;;;;;476862;249;27953;-71
2022/03/09 02:41:02;;;;;;;4.95;4.00;;;-1.00;99.90;;;;;;476898;249;27556;-73
2022/03/09 02:43:03;;;;;;;4.30;4.00;;;-1.00;99.90;;;;;;476869;249;27516;-71
2022/03/09 02:45:05;;;;;;;4.90;3.50;;;-1.00;99.90;;;;;;476858;249;27635;-71
2022/03/09 02:47:06;;;;;;;4.28;3.87;;;-1.00;99.90;;;;;;476854;249;27538;-71
2022/03/09 02:49:07;;;;;;;4.10;3.45;;;-1.00;99.90;;;;;;476833;249;27523;-72
2022/03/09 02:51:08;;;;;;;4.07;3.67;;;-1.10;99.90;;;;;;476860;249;27560;-71
2022/03/09 02:53:10;;;;;;;5.43;4.10;;;-1.10;99.90;;;;;;476852;249;27657;-71
2022/03/09 02:55:11;;;;;;;5.20;4.20;;;-1.20;99.90;;;;;;476840;249;27996;-72
2022/03/09 02:57:12;;;;;;;5.70;4.25;;;-1.30;99.90;;;;;;476812;249;28077;-71
2022/03/09 02:59:13;;;;;;;4.93;4.30;;;-1.30;99.90;;;;;;476827;249;28054;-71
2022/03/09 03:01:15;;;;;;;6.65;4.40;;;-1.30;99.90;;;;;;476895;249;27546;-73
2022/03/09 03:03:16;;;;;;;6.03;4.22;;;-1.30;99.90;;;;;;476849;249;27555;-71
2022/03/09 03:05:17;;;;;;;4.87;4.35;;;-1.30;99.90;;;;;;476840;249;27558;-72
2022/03/09 03:07:18;;;;;;;5.05;4.00;;;-1.30;99.90;;;;;;476869;249;27512;-71
2022/03/09 03:09:20;;;;;;;4.10;3.70;;;-1.30;99.90;;;;;;476826;249;27605;-71
2022/03/09 03:11:21;;;;;;;4.60;4.20;;;-1.20;99.90;;;;;;476860;249;27559;-73
2022/03/09 03:13:23;;;;;;;4.45;4.05;;;-1.20;99.90;;;;;;476847;249;27518;-71
2022/03/09 03:15:25;;;;;;;4.65;4.20;;;-1.20;99.90;;;;;;476856;249;27507;-71
2022/03/09 03:17:26;;;;;;;4.03;3.72;;;-1.30;99.90;;;;;;476867;249;27562;-72
2022/03/09 03:19:27;;;;;;;5.07;4.68;;;-1.30;99.90;;;;;;476866;249;28038;-72
2022/03/09 03:21:28;;;;;;;4.80;4.40;;;-1.30;99.90;;;;;;476845;249;28066;-71
2022/03/09 03:23:30;;;;;;;4.40;4.00;;;-1.30;99.90;;;;;;476859;249;27543;-72
2022/03/09 03:25:31;;;;;;;4.62;4.22;;;-1.40;99.90;;;;;;476827;249;27542;-71
2022/03/09 03:27:32;;;;;;;3.90;3.60;;;-1.40;99.90;;;;;;476851;249;27679;-71
2022/03/09 03:29:33;;;;;;;4.55;3.90;;;-1.40;99.90;;;;;;476839;249;27640;-74
2022/03/09 03:31:38;;;;;;;3.92;3.50;;;-1.40;99.90;;;;;;476911;249;27528;-71
2022/03/09 03:33:39;;;;;;;5.00;4.43;;;-1.50;99.90;;;;;;476330;249;27643;-71
2022/03/09 03:35:40;;;;;;;6.37;3.60;;;-1.50;99.90;;;;;;476316;249;27656;-71
2022/03/09 03:37:42;;;;;;;5.25;4.75;;;-1.50;99.90;;;;;;476795;249;27576;-73
2022/03/09 03:39:43;;;;;;;5.22;4.72;;;-1.50;99.90;;;;;;476857;249;27978;-71
2022/03/09 03:41:44;;;;;;;7.72;5.32;;;-1.50;99.90;;;;;;476862;249;28117;-71
2022/03/09 03:43:45;;;;;;;6.03;5.00;;;-1.50;99.90;;;;;;476850;249;29052;-71
2022/03/09 03:45:47;;;;;;;4.87;4.40;;;-1.60;99.90;;;;;;476864;249;27640;-71
2022/03/09 03:47:48;;;;;;;5.30;4.80;;;-1.60;99.90;;;;;;476871;249;27558;-72
2022/03/09 03:49:49;;;;;;;5.28;4.78;;;-1.60;99.90;;;;;;476900;249;27567;-71
2022/03/09 03:51:50;;;;;;;5.40;4.07;;;-1.60;99.90;;;;;;476904;249;27534;-71
2022/03/09 03:53:52;;;;;;;7.15;5.00;;;-1.70;99.90;;;;;;476861;249;27524;-71
2022/03/09 03:55:53;;;;;;;6.78;5.05;;;-1.70;99.90;;;;;;476836;249;27546;-71
2022/03/09 03:57:54;;;;;;;6.60;5.05;;;-1.80;99.90;;;;;;476861;249;27555;-75
2022/03/09 03:59:55;;;;;;;8.52;5.60;;;-1.70;99.90;;;;;;476905;249;27615;-71
2022/03/09 04:01:57;;;;;;;6.43;5.03;;;-1.70;99.90;;;;;;476858;249;28123;-72
2022/03/09 04:03:58;;;;;;;5.45;4.60;;;-1.80;99.90;;;;;;476843;249;27981;-71
2022/03/09 04:06:00;;;;;;;8.13;5.55;;;-1.80;99.90;;;;;;476863;249;27567;-71
2022/03/09 04:08:01;;;;;;;9.38;5.55;;;-1.80;99.90;;;;;;476866;249;27555;-71
2022/03/09 04:10:03;;;;;;;7.10;5.50;;;-1.80;99.90;;;;;;476860;249;28045;-74
2022/03/09 04:12:04;;;;;;;5.30;4.80;;;-1.80;99.90;;;;;;476843;249;28020;-72
2022/03/09 04:14:05;;;;;;;5.75;5.00;;;-1.80;99.90;;;;;;476842;249;29148;-72
2022/03/09 04:16:06;;;;;;;6.00;5.10;;;-1.90;99.90;;;;;;476853;249;27659;-71
2022/03/09 04:18:08;;;;;;;7.87;5.25;;;-2.00;99.90;;;;;;476872;249;27550;-71
2022/03/09 04:20:09;;;;;;;6.15;4.97;;;-2.00;99.90;;;;;;476853;249;27547;-73
2022/03/09 04:22:10;;;;;;;5.12;4.25;;;-2.00;99.90;;;;;;476845;249;27518;-71
2022/03/09 04:24:11;;;;;;;5.90;5.25;;;-2.00;99.90;;;;;;476854;249;27505;-72
2022/03/09 04:26:13;;;;;;;4.70;4.15;;;-2.00;99.90;;;;;;476836;249;27543;-75
2022/03/09 04:28:14;;;;;;;5.40;4.55;;;-2.00;99.90;;;;;;476870;249;27523;-72
2022/03/09 04:30:15;;;;;;;4.80;4.37;;;-2.00;99.90;;;;;;476851;249;28018;-73
2022/03/09 04:32:16;;;;;;;4.87;4.47;;;-2.00;99.90;;;;;;476840;249;28039;-71
2022/03/09 04:34:18;;;;;;;5.93;4.55;;;-2.00;99.90;;;;;;476832;249;28056;-72
2022/03/09 04:36:19;;;;;;;4.18;3.78;;;-2.00;99.90;;;;;;476852;249;27683;-72
2022/03/09 04:38:20;;;;;;;6.22;5.00;;;-2.10;99.90;;;;;;476868;249;27524;-72
2022/03/09 04:40:21;;;;;;;8.45;5.10;;;-2.20;99.90;;;;;;476852;249;27593;-71
2022/03/09 04:42:23;;;;;;;5.68;5.07;;;-2.20;99.90;;;;;;476809;249;27501;-71
2022/03/09 04:44:24;;;;;;;5.53;4.95;;;-2.30;99.90;;;;;;476801;249;27558;-72
2022/03/09 04:46:25;;;;;;;6.12;5.05;;;-2.30;99.90;;;;;;476817;249;27627;-74
2022/03/09 04:48:26;;;;;;;4.87;4.30;;;-2.30;99.90;;;;;;476856;249;27594;-72
2022/03/09 04:50:28;;;;;;;6.32;4.95;;;-2.20;99.90;;;;;;476852;249;28000;-71
2022/03/09 04:52:29;;;;;;;6.35;5.03;;;-2.20;99.90;;;;;;476823;249;28084;-72
2022/03/09 04:54:30;;;;;;;7.25;5.25;;;-2.30;99.90;;;;;;476821;249;29138;-71
2022/03/09 04:56:31;;;;;;;6.82;5.60;;;-2.30;99.90;;;;;;476839;248;27570;-71
2022/03/09 04:58:34;;;;;;;5.40;4.95;;;-2.30;99.90;;;;;;476833;249;27594;-73
2022/03/09 05:00:35;;;;;;;5.55;5.05;;;-2.30;99.90;;;;;;476828;249;27566;-71
2022/03/09 05:02:37;;;;;;;5.70;5.10;;;-2.40;99.90;;;;;;476834;249;27653;-71
2022/03/09 05:04:38;;;;;;;5.22;4.72;;;-2.40;99.90;;;;;;476846;249;27894;-71
2022/03/09 05:06:39;;;;;;;6.80;4.70;;;-2.50;99.90;;;;;;476815;249;27406;-72
2022/03/09 05:08:40;;;;;;;5.80;4.65;;;-2.50;99.90;;;;;;476817;249;27579;-71
2022/03/09 05:10:42;;;;;;;5.93;4.87;;;-2.50;99.90;;;;;;476833;249;27684;-71
2022/03/09 05:12:43;;;;;;;5.87;4.72;;;-2.40;99.90;;;;;;476837;249;28098;-72
2022/03/09 05:14:44;;;;;;;5.40;4.80;;;-2.40;99.90;;;;;;476825;249;28094;-71
2022/03/09 05:16:45;;;;;;;5.15;4.60;;;-2.50;99.90;;;;;;476853;249;29044;-71
2022/03/09 05:18:47;;;;;;;6.18;4.75;;;-2.50;99.90;;;;;;476837;249;27673;-72
2022/03/09 05:20:48;;;;;;;5.40;4.30;;;-2.50;99.90;;;;;;476835;249;27596;-72
2022/03/09 05:22:49;;;;;;;6.15;5.50;;;-2.50;99.90;;;;;;476836;249;27453;-71
2022/03/09 05:24:50;;;;;;;6.07;4.80;;;-2.60;99.90;;;;;;476859;249;27441;-72
2022/03/09 05:26:52;;;;;;;6.05;4.90;;;-2.70;99.90;;;;;;476839;249;27467;-71
2022/03/09 05:28:53;;;;;;;4.53;4.15;;;-2.70;99.90;;;;;;476841;249;27405;-73
2022/03/09 05:30:54;;;;;;;5.55;4.80;;;-2.60;99.90;;;;;;476852;249;27482;-72
2022/03/09 05:32:55;;;;;;;5.55;4.95;;;-2.60;99.90;;;;;;476830;249;27666;-72
2022/03/09 05:34:57;;;;;;;5.10;4.60;;;-2.60;99.90;;;;;;476853;249;28119;-74
2022/03/09 05:36:58;;;;;;;5.80;4.97;;;-2.70;99.90;;;;;;476844;249;27968;-72
2022/03/09 05:38:59;;;;;;;7.28;5.25;;;-2.70;99.90;;;;;;476822;249;27374;-72
2022/03/09 05:41:00;;;;;;;5.62;4.20;;;-2.70;99.90;;;;;;476830;249;27386;-72
2022/03/09 05:43:02;;;;;;;5.30;4.80;;;-2.70;99.90;;;;;;476826;249;27631;-72
2022/03/09 05:45:03;;;;;;;5.60;4.70;;;-2.70;99.90;;;;;;476877;249;27777;-71
2022/03/09 05:47:05;;;;;;;5.30;4.82;;;-2.70;99.90;;;;;;476852;249;27184;-72
2022/03/09 05:49:05;;;;;;;6.15;5.10;;;-2.80;99.90;;;;;;476820;249;27529;-73
2022/03/09 05:51:07;;;;;;;4.30;3.90;;;-2.80;99.90;;;;;;476817;249;27888;-72
2022/03/09 05:53:08;;;;;;;4.60;4.20;;;-2.80;99.90;;;;;;476843;249;28022;-71
2022/03/09 05:55:09;;;;;;;6.03;5.30;;;-2.80;99.90;;;;;;476864;249;28010;-74
2022/03/09 05:57:10;;;;;;;7.05;5.85;;;-2.80;99.90;;;;;;476847;249;27278;-73
2022/03/09 05:59:12;;;;;;;7.22;5.85;;;-2.90;99.90;;;;;;476830;249;27338;-72
2022/03/09 06:01:13;;;;;;;5.90;5.05;;;-2.90;99.90;;;;;;476822;249;27596;-72
2022/03/09 06:03:14;;;;;;;6.80;5.00;;;-2.80;99.90;;;;;;476845;249;27427;-72
2022/03/09 06:05:15;;;;;;;5.75;5.20;;;-2.80;99.90;;;;;;476862;249;27354;-74
2022/03/09 06:07:17;;;;;;;6.03;5.05;;;-2.80;99.90;;;;;;476827;249;27370;-72
2022/03/09 06:09:18;;;;;;;5.10;4.60;;;-2.70;99.90;;;;;;476814;249;27618;-72
2022/03/09 06:11:19;;;;;;;6.68;4.93;;;-2.70;99.90;;;;;;476811;249;28711;-72
2022/03/09 06:13:20;;;;;;;5.47;4.90;;;-2.70;99.90;;;;;;476798;249;27976;-72
2022/03/09 06:15:22;;;;;;;5.70;4.85;;;-2.70;99.90;;;;;;476867;249;29031;-73
2022/03/09 06:17:23;;;;;;;6.50;4.57;;;-2.70;99.90;;;;;;476825;249;27506;-72
2022/03/09 06:19:24;;;;;;;8.63;4.90;;;-2.60;99.90;;;;;;476811;249;27579;-74
2022/03/09 06:21:25;;;;;;;5.97;5.12;;;-2.60;99.90;;;;;;476368;249;27498;-72
2022/03/09 06:23:27;;;;;;;6.50;5.15;;;-2.60;99.90;;;;;;476842;249;27368;-72
2022/03/09 06:25:28;;;;;;;5.70;4.90;;;-2.60;99.90;;;;;;476834;249;27516;-72
2022/03/09 06:27:29;;;;;;;7.05;5.12;;;-2.60;99.90;;;;;;476815;249;27468;-74
2022/03/09 06:29:30;;;;;;;8.20;5.07;;;-2.60;99.90;;;;;;476851;249;28265;-72
2022/03/09 06:31:32;;;;;;;6.95;4.40;;;-2.60;99.90;;;;;;476845;249;29939;-72
2022/03/09 06:33:33;;;;;;;6.70;4.80;;;-2.60;99.90;;;;;;476855;249;27977;-72
2022/03/09 06:35:34;;;;;;;5.00;4.50;;;-2.60;99.90;;;;;;476854;249;27544;-73
2022/03/09 06:37:35;;;;;;;5.95;5.07;;;-2.50;99.90;;;;;;476860;249;27514;-72
2022/03/09 06:39:37;;;;;;;5.65;4.60;;;-2.50;99.90;;;;;;476815;249;27560;-73
2022/03/09 06:41:38;;;;;;;6.00;4.75;;;-2.60;99.90;;;;;;476824;249;27630;-72
2022/03/09 06:43:39;;;;;;;4.85;4.10;;;-2.60;99.90;;;;;;476855;249;27655;-72
2022/03/09 06:45:40;;;;;;;4.62;4.15;;;-2.60;99.90;;;;;;476842;249;27578;-74
2022/03/09 06:47:42;;;;;;;6.35;5.10;;;-2.70;99.90;;;;;;476847;249;27524;-71
2022/03/09 06:49:43;;;;;;;6.05;5.45;;;-2.60;99.90;;;;;;476855;249;28076;-73
2022/03/09 06:51:44;;;;;;;5.65;4.97;;;-2.60;99.90;;;;;;476849;249;29199;-72
2022/03/09 06:53:46;;;;;;;5.37;4.85;;;-2.60;99.90;;;;;;476862;249;27980;-72
2022/03/09 06:55:47;;;;;;;5.65;4.75;;;-2.50;99.90;;;;;;476838;249;27559;-72
2022/03/09 06:57:48;;;;;;;5.90;4.72;;;-2.50;99.90;;;;;;476853;249;27436;-72
2022/03/09 06:59:49;;;;;;;6.32;4.62;;;-2.40;99.90;;;;;;476861;249;27543;-72
2022/03/09 07:01:51;;;;;;;4.55;4.07;;;-2.40;99.90;;;;;;476857;249;27993;-72
2022/03/09 07:03:52;;;;;;;7.95;4.97;;;-2.40;99.90;;;;;;476872;249;27532;-72
2022/03/09 07:05:54;;;;;;;4.68;4.25;;;-2.30;99.90;;;;;;476877;249;27588;-73
2022/03/09 07:07:54;;;;;;;6.10;4.93;;;-2.20;99.90;;;;;;476850;248;27592;-72
2022/03/09 07:09:56;;;;;;;5.30;4.30;;;-2.10;99.90;;;;;;476850;249;27957;-72
2022/03/09 07:11:57;;;;;;;5.70;4.65;;;-2.10;99.90;;;;;;476874;249;29264;-73
2022/03/09 07:13:58;;;;;;;5.95;4.82;;;-2.00;99.90;;;;;;476838;249;28067;-72
2022/03/09 07:15:59;;;;;;;4.57;4.18;;;-2.00;99.90;;;;;;476889;249;27538;-72
2022/03/09 07:18:01;;;;;;;6.30;4.95;;;-2.00;99.90;;;;;;476897;249;27591;-72
2022/03/09 07:20:02;;;;;;;5.25;4.45;;;-2.00;99.90;;;;;;476870;249;27549;-73
2022/03/09 07:22:03;;;;;;;5.68;4.85;;;-1.90;99.90;;;;;;476880;249;27560;-75
2022/03/09 07:24:04;;;;;;;5.07;4.07;;;-1.80;99.90;;;;;;476842;249;27515;-72
2022/03/09 07:26:06;;;;;;;4.95;4.45;;;-1.80;99.90;;;;;;476855;249;27555;-73
2022/03/09 07:28:07;;;;;;;4.37;3.97;;;-1.70;99.90;;;;;;476864;249;27577;-72
2022/03/09 07:30:08;;;;;;;5.00;4.30;;;-1.70;99.90;;;;;;476849;249;27609;-72
2022/03/09 07:32:11;;;;;;;4.78;3.80;;;-1.60;99.90;;;;;;476861;249;27559;-73
2022/03/09 07:34:11;;;;;;;4.72;4.12;;;-1.50;99.90;;;;;;476748;249;27514;-72
2022/03/09 07:36:12;;;;;;;5.47;4.18;;;-1.50;99.90;;;;;;476830;249;27624;-72
2022/03/09 07:38:14;;;;;;;4.97;4.57;;;-1.40;99.90;;;;;;476828;249;28700;-72
2022/03/09 07:40:14;;;;;;;6.43;4.32;;;-1.30;99.90;;;;;;476867;249;29115;-72
2022/03/09 07:42:16;;;;;;;5.45;4.50;;;-1.30;99.90;;;;;;476859;249;27628;-71
2022/03/09 07:44:17;;;;;;;5.05;4.30;;;-1.30;99.90;;;;;;476858;247;27565;-72
2022/03/09 07:46:18;;;;;;;4.85;4.45;;;-1.20;99.90;;;;;;476867;249;27563;-73
2022/03/09 07:48:19;;;;;;;6.87;4.10;;;-1.20;99.90;;;;;;476835;248;27631;-72
2022/03/09 07:50:21;;;;;;;7.05;4.82;;;-1.10;99.90;;;;;;476883;249;27520;-72
2022/03/09 07:52:22;;;;;;;5.50;4.50;;;-1.00;99.90;;;;;;476885;249;27592;-73
2022/03/09 07:54:23;;;;;;;5.65;5.00;;;-0.90;99.90;;;;;;476834;249;27511;-72
2022/03/09 07:56:24;;;;;;;5.25;4.75;;;-0.80;99.90;;;;;;476882;249;27569;-72
2022/03/09 07:58:26;;;;;;;5.07;4.57;;;-0.70;99.90;;;;;;476863;249;28703;-72
2022/03/09 08:00:27;;;;;;;5.82;4.62;;;-0.70;99.90;;;;;;476899;249;28033;-72
2022/03/09 08:02:28;;;;;;;5.30;4.68;;;-0.70;99.90;;;;;;476860;249;27547;-73
2022/03/09 08:04:29;;;;;;;5.22;4.45;;;-0.50;99.90;;;;;;476831;249;27617;-72
2022/03/09 08:06:32;;;;;;;4.95;4.40;;;-0.50;99.90;;;;;;476824;249;28097;-72
2022/03/09 08:08:32;;;;;;;5.30;4.80;;;-0.30;99.90;;;;;;476803;249;28213;-72
2022/03/09 08:10:33;;;;;;;5.07;4.20;;;-0.20;99.90;;;;;;476844;249;27507;-72
2022/03/09 08:12:35;;;;;;;5.00;4.22;;;-0.10;99.90;;;;;;476833;249;27678;-72
2022/03/09 08:14:36;;;;;;;6.00;5.10;;;0.10;99.90;;;;;;476840;249;27520;-72
2022/03/09 08:16:37;;;;;;;6.47;4.68;;;0.30;99.90;;;;;;476970;249;27653;-73
2022/03/09 08:18:38;;;;;;;4.65;4.25;;;0.40;99.90;;;;;;477019;249;27991;-75
2022/03/09 08:20:40;;;;;;;5.10;4.43;;;0.50;99.90;;;;;;476828;249;27600;-71
2022/03/09 08:22:42;;;;;;;5.32;4.40;;;0.60;99.90;;;;;;476807;249;27546;-72
2022/03/09 08:24:42;;;;;;;5.72;4.20;;;0.60;99.90;;;;;;476779;249;27961;-72
2022/03/09 08:26:43;;;;;;;4.25;3.95;;;0.60;99.90;;;;;;476810;249;28030;-72
2022/03/09 08:28:45;;;;;;;5.40;4.62;;;0.80;99.90;;;;;;476860;249;28100;-73
2022/03/09 08:30:46;;;;;;;5.80;4.40;;;1.00;99.90;;;;;;476853;249;28004;-72
2022/03/09 08:32:47;;;;;;;5.53;4.80;;;1.10;99.90;;;;;;476867;249;27543;-72
2022/03/09 08:34:50;;;;;;;4.60;4.10;;;1.20;99.90;;;;;;476860;249;27523;-72
2022/03/09 08:36:51;;;;;;;5.62;4.53;;;1.30;99.90;;;;;;476815;249;27684;-75
2022/03/09 08:38:53;;;;;;;5.32;4.82;;;1.40;99.90;;;;;;476822;249;27517;-71
2022/03/09 08:40:54;;;;;;;5.85;5.00;;;1.60;99.90;;;;;;476801;249;28103;-73
2022/03/09 08:42:54;;;;;;;5.35;4.20;;;1.90;99.90;;;;;;476777;249;28047;-72
2022/03/09 08:44:56;;;;;;;5.80;5.00;;;2.00;99.90;;;;;;476839;249;28027;-72
2022/03/09 08:46:57;;;;;;;5.50;4.65;;;2.10;99.90;;;;;;476850;247;28063;-74
2022/03/09 08:48:58;;;;;;;5.97;4.85;;;2.50;99.90;;;;;;476862;249;27506;-72
2022/03/09 08:50:59;;;;;;;6.55;5.85;;;2.60;99.90;;;;;;476885;249;27596;-73
2022/03/09 08:53:01;;;;;;;7.43;5.78;;;2.80;99.90;;;;;;476861;249;27502;-72
2022/03/09 08:55:02;;;;;;;6.82;5.25;;;2.90;99.90;;;;;;476854;249;27534;-72
2022/03/09 08:57:03;;;;;;;7.43;5.12;;;3.00;99.90;;;;;;476885;249;27571;-73
2022/03/09 08:59:04;;;;;;;8.27;5.20;;;3.00;99.90;;;;;;476886;249;27520;-71
2022/03/09 09:01:06;;;;;;;6.87;4.97;;;3.00;99.90;;;;;;476870;249;27542;-73
2022/03/09 09:03:07;;;;;;;8.63;6.00;;;3.10;99.90;;;;;;476877;249;28050;-72
2022/03/09 09:05:08;;;;;;;6.15;5.55;;;3.30;99.90;;;;;;476849;249;28050;-72
2022/03/09 09:07:09;;;;;;;5.45;4.87;;;3.30;99.90;;;;;;476862;249;28111;-74
2022/03/09 09:09:11;;;;;;;6.03;5.15;;;3.30;99.90;;;;;;476874;249;28077;-72
2022/03/09 09:11:12;;;;;;;8.30;6.37;;;3.40;99.90;;;;;;476863;249;27591;-72
2022/03/09 09:13:13;;;;;;;6.87;5.53;;;3.60;99.90;;;;;;476799;249;27613;-72
2022/03/09 09:15:14;;;;;;;7.22;5.40;;;3.70;99.90;;;;;;476833;249;28086;-72
2022/03/09 09:17:16;;;;;;;6.47;5.07;;;3.80;99.90;;;;;;476846;249;28035;-73
2022/03/09 09:19:17;;;;;;;7.05;5.30;;;3.90;99.90;;;;;;476856;249;28180;-72
2022/03/09 09:21:18;;;;;;;8.80;5.80;;;4.00;99.90;;;;;;476856;249;29128;-72
2022/03/09 09:23:19;;;;;;;6.37;5.43;;;4.10;99.90;;;;;;476885;249;27604;-72
2022/03/09 09:25:21;;;;;;;7.32;5.60;;;4.10;99.90;;;;;;476867;249;27622;-72
2022/03/09 09:27:22;;;;;;;9.10;6.53;;;4.10;99.90;;;;;;476873;249;27557;-72
2022/03/09 09:29:23;;;;;;;9.23;5.87;;;4.30;99.90;;;;;;476839;249;27528;-72
2022/03/09 09:31:24;;;;;;;8.00;6.15;;;4.60;99.90;;;;;;476857;249;27557;-72
2022/03/09 09:33:26;;;;;;;8.05;6.05;;;4.60;99.90;;;;;;476864;249;27578;-72
2022/03/09 09:35:27;;;;;;;7.03;5.28;;;4.80;99.90;;;;;;476878;249;27567;-71
2022/03/09 09:37:29;;;;;;;9.18;6.47;;;4.70;99.90;;;;;;476847;249;27546;-72
2022/03/09 09:39:30;;;;;;;7.82;6.55;;;4.80;99.90;;;;;;476849;249;27546;-72
2022/03/09 09:41:33;;;;;;;11.40;7.37;;;5.10;99.90;;;;;;476831;249;27560;-72
2022/03/09 09:43:33;;;;;;;8.45;6.72;;;5.00;99.90;;;;;;476715;249;28014;-72
2022/03/09 09:45:35;;;;;;;8.38;6.05;;;4.90;99.90;;;;;;476866;249;28154;-74
2022/03/09 09:47:35;;;;;;;9.55;6.50;;;4.80;99.90;;;;;;476850;249;27522;-72
2022/03/09 09:49:37;;;;;;;9.07;6.43;;;5.10;99.90;;;;;;476848;247;27556;-72
2022/03/09 09:51:38;;;;;;;9.63;6.90;;;5.20;99.90;;;;;;476806;249;27554;-72
2022/03/09 09:53:39;;;;;;;11.70;7.60;;;5.20;99.90;;;;;;476854;249;27528;-72
2022/03/09 09:55:41;;;;;;;9.70;7.20;;;5.20;99.90;;;;;;476868;249;27566;-73
2022/03/09 09:57:42;;;;;;;10.77;7.20;;;5.40;99.90;;;;;;476873;249;27547;-72
2022/03/09 09:59:44;;;;;;;9.23;7.10;;;5.50;99.10;;;;;;476838;249;27650;-72
2022/03/09 10:01:44;;;;;;;13.52;7.68;;;5.50;99.40;;;;;;476849;249;28042;-72
2022/03/09 10:03:46;;;;;;;9.88;7.53;;;5.60;99.40;;;;;;476857;249;27983;-71
2022/03/09 10:05:47;;;;;;;8.77;6.72;;;5.80;99.60;;;;;;476865;249;27551;-74
2022/03/09 10:07:48;;;;;;;11.12;7.03;;;5.70;99.90;;;;;;476844;249;27507;-72
2022/03/09 10:09:49;;;;;;;10.52;7.62;;;5.60;99.60;;;;;;476842;249;27550;-72
2022/03/09 10:11:51;;;;;;;10.20;6.80;;;5.70;98.20;;;;;;476841;249;27519;-71
2022/03/09 10:13:52;;;;;;;11.63;7.57;;;5.70;99.00;;;;;;476873;249;27515;-71
2022/03/09 10:15:53;;;;;;;9.50;6.78;;;5.70;99.30;;;;;;476863;249;28122;-72
2022/03/09 10:17:54;;;;;;;10.07;6.25;;;5.60;99.90;;;;;;476866;249;27970;-71
2022/03/09 10:19:58;;;;;;;9.02;6.72;;;5.60;99.90;;;;;;476819;249;27540;-72
2022/03/09 10:21:57;;;;;;;10.25;7.32;;;5.80;99.90;;;;;;476779;249;27617;-71
2022/03/09 10:23:58;;;;;;;9.30;6.85;;;6.10;98.80;;;;;;476864;249;27567;-72
2022/03/09 10:25:59;;;;;;;10.00;7.47;;;6.20;98.00;;;;;;476878;249;27663;-72
2022/03/09 10:28:03;;;;;;;11.05;7.60;;;6.20;97.60;;;;;;476856;249;28087;-71
2022/03/09 10:30:02;;;;;;;8.95;6.70;;;6.00;97.90;;;;;;476735;249;28033;-72
2022/03/09 10:32:03;;;;;;;11.77;8.02;;;6.10;97.80;;;;;;476877;249;27556;-74
2022/03/09 10:34:04;;;;;;;11.70;7.55;;;6.30;97.70;;;;;;476879;249;27525;-71
2022/03/09 10:36:06;;;;;;;9.77;7.07;;;6.30;96.60;;;;;;476869;247;27673;-72